sensor_id;sensor_type;location;lat;lon;timestamp;P1;durP1;ratioP1;P2;durP2;ratioP2
81374;SDS011;70828;51.158;4.998;2023-07-24T00:02:12;3.08;;;1.80;;
81374;SDS011;70828;51.158;4.998;2023-07-24T00:04:39;3.63;;;1.95;;
81374;SDS011;70828;51.158;4.998;2023-07-24T00:07:06;4.53;;;2.55;;
81374;SDS011;70828;51.158;4.998;2023-07-24T00:09:32;9.45;;;3.25;;
81374;SDS011;70828;51.158;4.998;2023-07-24T00:12:00;5.65;;;2.40;;
81374;SDS011;70828;51.158;4.998;2023-07-24T00:14:27;4.72;;;2.70;;
81374;SDS011;70828;51.158;4.998;2023-07-24T00:16:53;5.65;;;2.25;;
81374;SDS011;70828;51.158;4.998;2023-07-24T00:19:20;6.45;;;2.75;;
81374;SDS011;70828;51.158;4.998;2023-07-24T00:21:46;6.38;;;2.80;;
81374;SDS011;70828;51.158;4.998;2023-07-24T00:24:13;4.53;;;2.50;;
81374;SDS011;70828;51.158;4.998;2023-07-24T00:26:40;5.30;;;2.92;;
81374;SDS011;70828;51.158;4.998;2023-07-24T00:29:08;6.30;;;2.60;;
81374;SDS011;70828;51.158;4.998;2023-07-24T00:31:34;4.32;;;2.40;;
81374;SDS011;70828;51.158;4.998;2023-07-24T00:34:01;4.63;;;2.42;;
81374;SDS011;70828;51.158;4.998;2023-07-24T00:36:27;5.45;;;2.40;;
81374;SDS011;70828;51.158;4.998;2023-07-24T00:38:54;4.97;;;2.65;;
81374;SDS011;70828;51.158;4.998;2023-07-24T00:41:20;5.65;;;2.45;;
81374;SDS011;70828;51.158;4.998;2023-07-24T00:43:47;4.95;;;2.60;;
81374;SDS011;70828;51.158;4.998;2023-07-24T00:46:15;5.25;;;3.13;;
81374;SDS011;70828;51.158;4.998;2023-07-24T00:48:41;6.10;;;2.50;;
81374;SDS011;70828;51.158;4.998;2023-07-24T00:51:08;7.32;;;2.90;;
81374;SDS011;70828;51.158;4.998;2023-07-24T00:53:35;6.90;;;2.90;;
81374;SDS011;70828;51.158;4.998;2023-07-24T00:56:01;5.93;;;3.08;;
81374;SDS011;70828;51.158;4.998;2023-07-24T00:58:28;11.63;;;3.47;;
81374;SDS011;70828;51.158;4.998;2023-07-24T01:00:55;5.82;;;2.65;;
81374;SDS011;70828;51.158;4.998;2023-07-24T01:03:23;7.43;;;3.33;;
81374;SDS011;70828;51.158;4.998;2023-07-24T01:05:56;8.80;;;3.15;;
81374;SDS011;70828;51.158;4.998;2023-07-24T01:08:23;9.73;;;3.55;;
81374;SDS011;70828;51.158;4.998;2023-07-24T01:10:49;11.55;;;3.60;;
81374;SDS011;70828;51.158;4.998;2023-07-24T01:13:17;8.27;;;3.33;;
81374;SDS011;70828;51.158;4.998;2023-07-24T01:15:48;7.40;;;3.45;;
81374;SDS011;70828;51.158;4.998;2023-07-24T01:18:15;8.93;;;3.55;;
81374;SDS011;70828;51.158;4.998;2023-07-24T01:20:46;11.65;;;4.40;;
81374;SDS011;70828;51.158;4.998;2023-07-24T01:23:20;9.30;;;3.88;;
81374;SDS011;70828;51.158;4.998;2023-07-24T01:25:56;9.95;;;4.13;;
81374;SDS011;70828;51.158;4.998;2023-07-24T01:28:24;7.40;;;3.60;;
81374;SDS011;70828;51.158;4.998;2023-07-24T01:30:51;6.63;;;3.67;;
81374;SDS011;70828;51.158;4.998;2023-07-24T01:33:18;7.75;;;3.70;;
81374;SDS011;70828;51.158;4.998;2023-07-24T01:35:45;12.27;;;4.03;;
81374;SDS011;70828;51.158;4.998;2023-07-24T01:38:15;10.68;;;4.03;;
81374;SDS011;70828;51.158;4.998;2023-07-24T01:40:42;12.90;;;4.70;;
81374;SDS011;70828;51.158;4.998;2023-07-24T01:43:10;12.70;;;4.07;;
81374;SDS011;70828;51.158;4.998;2023-07-24T01:45:37;10.57;;;4.22;;
81374;SDS011;70828;51.158;4.998;2023-07-24T01:48:04;9.77;;;3.97;;
81374;SDS011;70828;51.158;4.998;2023-07-24T01:50:31;9.27;;;4.45;;
81374;SDS011;70828;51.158;4.998;2023-07-24T01:52:57;7.22;;;4.40;;
81374;SDS011;70828;51.158;4.998;2023-07-24T01:55:24;11.90;;;4.57;;
81374;SDS011;70828;51.158;4.998;2023-07-24T01:57:51;7.75;;;4.07;;
81374;SDS011;70828;51.158;4.998;2023-07-24T02:00:19;6.70;;;3.80;;
81374;SDS011;70828;51.158;4.998;2023-07-24T02:02:45;24.73;;;5.72;;
81374;SDS011;70828;51.158;4.998;2023-07-24T02:05:12;11.52;;;4.70;;
81374;SDS011;70828;51.158;4.998;2023-07-24T02:07:39;12.27;;;5.15;;
81374;SDS011;70828;51.158;4.998;2023-07-24T02:10:06;11.30;;;4.47;;
81374;SDS011;70828;51.158;4.998;2023-07-24T02:12:33;9.52;;;4.15;;
81374;SDS011;70828;51.158;4.998;2023-07-24T02:14:59;14.15;;;4.80;;
81374;SDS011;70828;51.158;4.998;2023-07-24T02:17:27;12.35;;;5.18;;
81374;SDS011;70828;51.158;4.998;2023-07-24T02:19:54;10.98;;;4.82;;
81374;SDS011;70828;51.158;4.998;2023-07-24T02:22:21;25.50;;;6.38;;
81374;SDS011;70828;51.158;4.998;2023-07-24T02:24:47;48.63;;;6.78;;
81374;SDS011;70828;51.158;4.998;2023-07-24T02:27:24;13.20;;;5.30;;
81374;SDS011;70828;51.158;4.998;2023-07-24T02:29:51;9.70;;;4.30;;
81374;SDS011;70828;51.158;4.998;2023-07-24T02:32:18;9.15;;;3.75;;
81374;SDS011;70828;51.158;4.998;2023-07-24T02:34:48;11.55;;;3.50;;
81374;SDS011;70828;51.158;4.998;2023-07-24T02:37:15;7.35;;;2.65;;
81374;SDS011;70828;51.158;4.998;2023-07-24T02:39:41;8.68;;;3.05;;
81374;SDS011;70828;51.158;4.998;2023-07-24T02:42:08;5.97;;;2.47;;
81374;SDS011;70828;51.158;4.998;2023-07-24T02:44:34;3.20;;;1.85;;
81374;SDS011;70828;51.158;4.998;2023-07-24T02:47:01;3.90;;;1.90;;
81374;SDS011;70828;51.158;4.998;2023-07-24T02:49:28;4.32;;;1.85;;
81374;SDS011;70828;51.158;4.998;2023-07-24T02:51:56;6.60;;;1.83;;
81374;SDS011;70828;51.158;4.998;2023-07-24T02:54:23;8.35;;;1.85;;
81374;SDS011;70828;51.158;4.998;2023-07-24T02:56:49;5.05;;;1.95;;
81374;SDS011;70828;51.158;4.998;2023-07-24T02:59:16;6.22;;;1.80;;
81374;SDS011;70828;51.158;4.998;2023-07-24T03:01:42;2.83;;;1.52;;
81374;SDS011;70828;51.158;4.998;2023-07-24T03:04:09;4.72;;;1.50;;
81374;SDS011;70828;51.158;4.998;2023-07-24T03:06:36;8.27;;;1.52;;
81374;SDS011;70828;51.158;4.998;2023-07-24T03:09:04;3.75;;;1.48;;
81374;SDS011;70828;51.158;4.998;2023-07-24T03:11:30;2.13;;;1.33;;
81374;SDS011;70828;51.158;4.998;2023-07-24T03:13:57;9.00;;;3.30;;
81374;SDS011;70828;51.158;4.998;2023-07-24T03:16:23;3.53;;;1.75;;
81374;SDS011;70828;51.158;4.998;2023-07-24T03:18:50;3.35;;;1.83;;
81374;SDS011;70828;51.158;4.998;2023-07-24T03:21:16;5.05;;;1.38;;
81374;SDS011;70828;51.158;4.998;2023-07-24T03:23:43;4.88;;;1.50;;
81374;SDS011;70828;51.158;4.998;2023-07-24T03:26:11;3.83;;;2.08;;
81374;SDS011;70828;51.158;4.998;2023-07-24T03:28:38;2.33;;;1.30;;
81374;SDS011;70828;51.158;4.998;2023-07-24T03:31:04;4.40;;;1.85;;
81374;SDS011;70828;51.158;4.998;2023-07-24T03:33:31;3.70;;;2.03;;
81374;SDS011;70828;51.158;4.998;2023-07-24T03:35:57;2.33;;;1.40;;
81374;SDS011;70828;51.158;4.998;2023-07-24T03:38:24;4.38;;;2.22;;
81374;SDS011;70828;51.158;4.998;2023-07-24T03:40:50;3.20;;;1.65;;
81374;SDS011;70828;51.158;4.998;2023-07-24T03:43:18;2.67;;;1.63;;
81374;SDS011;70828;51.158;4.998;2023-07-24T03:45:45;5.18;;;1.73;;
81374;SDS011;70828;51.158;4.998;2023-07-24T03:48:11;4.05;;;1.70;;
81374;SDS011;70828;51.158;4.998;2023-07-24T03:50:40;3.92;;;2.20;;
81374;SDS011;70828;51.158;4.998;2023-07-24T03:53:06;3.78;;;1.85;;
81374;SDS011;70828;51.158;4.998;2023-07-24T03:55:33;4.10;;;1.80;;
81374;SDS011;70828;51.158;4.998;2023-07-24T03:58:00;4.38;;;1.58;;
81374;SDS011;70828;51.158;4.998;2023-07-24T04:00:28;2.78;;;1.83;;
81374;SDS011;70828;51.158;4.998;2023-07-24T04:02:54;4.35;;;1.95;;
81374;SDS011;70828;51.158;4.998;2023-07-24T04:05:21;4.75;;;2.10;;
81374;SDS011;70828;51.158;4.998;2023-07-24T04:07:48;5.20;;;1.80;;
81374;SDS011;70828;51.158;4.998;2023-07-24T04:10:14;5.45;;;1.80;;
81374;SDS011;70828;51.158;4.998;2023-07-24T04:12:41;4.78;;;1.80;;
81374;SDS011;70828;51.158;4.998;2023-07-24T04:15:08;4.45;;;2.40;;
81374;SDS011;70828;51.158;4.998;2023-07-24T04:17:36;3.47;;;2.00;;
81374;SDS011;70828;51.158;4.998;2023-07-24T04:20:04;3.78;;;2.30;;
81374;SDS011;70828;51.158;4.998;2023-07-24T04:22:32;3.60;;;2.50;;
81374;SDS011;70828;51.158;4.998;2023-07-24T04:24:58;4.28;;;2.03;;
81374;SDS011;70828;51.158;4.998;2023-07-24T04:27:25;4.90;;;2.10;;
81374;SDS011;70828;51.158;4.998;2023-07-24T04:29:51;3.22;;;1.70;;
81374;SDS011;70828;51.158;4.998;2023-07-24T04:32:18;5.90;;;1.88;;
81374;SDS011;70828;51.158;4.998;2023-07-24T04:34:46;3.92;;;1.92;;
81374;SDS011;70828;51.158;4.998;2023-07-24T04:37:12;4.07;;;2.42;;
81374;SDS011;70828;51.158;4.998;2023-07-24T04:39:39;3.58;;;2.17;;
81374;SDS011;70828;51.158;4.998;2023-07-24T04:42:06;3.30;;;1.90;;
81374;SDS011;70828;51.158;4.998;2023-07-24T04:44:32;3.45;;;1.58;;
81374;SDS011;70828;51.158;4.998;2023-07-24T04:46:59;3.70;;;1.67;;
81374;SDS011;70828;51.158;4.998;2023-07-24T04:49:28;2.50;;;1.83;;
81374;SDS011;70828;51.158;4.998;2023-07-24T04:51:56;3.50;;;1.85;;
81374;SDS011;70828;51.158;4.998;2023-07-24T04:54:22;3.28;;;2.10;;
81374;SDS011;70828;51.158;4.998;2023-07-24T04:56:49;4.65;;;2.17;;
81374;SDS011;70828;51.158;4.998;2023-07-24T04:59:16;3.13;;;2.00;;
81374;SDS011;70828;51.158;4.998;2023-07-24T05:01:42;3.35;;;2.20;;
81374;SDS011;70828;51.158;4.998;2023-07-24T05:04:09;6.93;;;2.58;;
81374;SDS011;70828;51.158;4.998;2023-07-24T05:06:35;3.20;;;2.10;;
81374;SDS011;70828;51.158;4.998;2023-07-24T05:09:04;3.63;;;2.53;;
81374;SDS011;70828;51.158;4.998;2023-07-24T05:11:31;5.30;;;2.05;;
81374;SDS011;70828;51.158;4.998;2023-07-24T05:13:58;5.03;;;2.45;;
81374;SDS011;70828;51.158;4.998;2023-07-24T05:16:24;5.53;;;2.70;;
81374;SDS011;70828;51.158;4.998;2023-07-24T05:18:51;3.67;;;2.13;;
81374;SDS011;70828;51.158;4.998;2023-07-24T05:21:17;5.40;;;4.35;;
81374;SDS011;70828;51.158;4.998;2023-07-24T05:23:44;3.35;;;2.20;;
81374;SDS011;70828;51.158;4.998;2023-07-24T05:26:12;3.40;;;1.80;;
81374;SDS011;70828;51.158;4.998;2023-07-24T05:28:38;5.05;;;2.25;;
81374;SDS011;70828;51.158;4.998;2023-07-24T05:31:05;3.45;;;1.73;;
81374;SDS011;70828;51.158;4.998;2023-07-24T05:33:33;4.70;;;1.92;;
81374;SDS011;70828;51.158;4.998;2023-07-24T05:36:00;3.15;;;1.95;;
81374;SDS011;70828;51.158;4.998;2023-07-24T05:38:27;3.78;;;2.08;;
81374;SDS011;70828;51.158;4.998;2023-07-24T05:40:54;2.63;;;1.83;;
81374;SDS011;70828;51.158;4.998;2023-07-24T05:43:22;2.92;;;1.77;;
81374;SDS011;70828;51.158;4.998;2023-07-24T05:45:49;2.63;;;1.58;;
81374;SDS011;70828;51.158;4.998;2023-07-24T05:48:16;3.17;;;1.48;;
81374;SDS011;70828;51.158;4.998;2023-07-24T05:50:42;2.90;;;1.65;;
81374;SDS011;70828;51.158;4.998;2023-07-24T05:53:09;2.20;;;1.40;;
81374;SDS011;70828;51.158;4.998;2023-07-24T05:55:35;2.85;;;1.83;;
81374;SDS011;70828;51.158;4.998;2023-07-24T05:58:02;4.30;;;1.50;;
81374;SDS011;70828;51.158;4.998;2023-07-24T06:00:30;2.90;;;1.50;;
81374;SDS011;70828;51.158;4.998;2023-07-24T06:02:57;2.55;;;1.30;;
81374;SDS011;70828;51.158;4.998;2023-07-24T06:05:23;3.10;;;1.60;;
81374;SDS011;70828;51.158;4.998;2023-07-24T06:07:50;3.03;;;1.70;;
81374;SDS011;70828;51.158;4.998;2023-07-24T06:10:16;3.85;;;1.73;;
81374;SDS011;70828;51.158;4.998;2023-07-24T06:12:43;3.40;;;2.17;;
81374;SDS011;70828;51.158;4.998;2023-07-24T06:15:10;2.70;;;1.90;;
81374;SDS011;70828;51.158;4.998;2023-07-24T06:17:38;3.08;;;1.75;;
81374;SDS011;70828;51.158;4.998;2023-07-24T06:20:05;4.55;;;1.85;;
81374;SDS011;70828;51.158;4.998;2023-07-24T06:22:32;2.65;;;1.63;;
81374;SDS011;70828;51.158;4.998;2023-07-24T06:24:59;2.63;;;1.60;;
81374;SDS011;70828;51.158;4.998;2023-07-24T06:27:25;5.03;;;2.05;;
81374;SDS011;70828;51.158;4.998;2023-07-24T06:29:52;3.40;;;1.70;;
81374;SDS011;70828;51.158;4.998;2023-07-24T06:32:19;5.05;;;2.00;;
81374;SDS011;70828;51.158;4.998;2023-07-24T06:34:47;4.10;;;1.73;;
81374;SDS011;70828;51.158;4.998;2023-07-24T06:37:13;5.35;;;2.22;;
81374;SDS011;70828;51.158;4.998;2023-07-24T06:39:40;2.63;;;1.48;;
81374;SDS011;70828;51.158;4.998;2023-07-24T06:42:07;3.53;;;1.90;;
81374;SDS011;70828;51.158;4.998;2023-07-24T06:44:33;3.17;;;1.83;;
81374;SDS011;70828;51.158;4.998;2023-07-24T06:47:00;2.95;;;1.83;;
81374;SDS011;70828;51.158;4.998;2023-07-24T06:49:26;2.92;;;1.70;;
81374;SDS011;70828;51.158;4.998;2023-07-24T06:51:54;3.20;;;1.80;;
81374;SDS011;70828;51.158;4.998;2023-07-24T06:54:21;2.92;;;1.92;;
81374;SDS011;70828;51.158;4.998;2023-07-24T06:56:48;7.07;;;1.88;;
81374;SDS011;70828;51.158;4.998;2023-07-24T06:59:14;4.32;;;1.80;;
81374;SDS011;70828;51.158;4.998;2023-07-24T07:01:41;3.58;;;2.08;;
81374;SDS011;70828;51.158;4.998;2023-07-24T07:04:07;3.22;;;1.85;;
81374;SDS011;70828;51.158;4.998;2023-07-24T07:06:34;2.88;;;1.73;;
81374;SDS011;70828;51.158;4.998;2023-07-24T07:09:02;2.50;;;1.55;;
81374;SDS011;70828;51.158;4.998;2023-07-24T07:11:29;3.33;;;1.90;;
81374;SDS011;70828;51.158;4.998;2023-07-24T07:13:56;5.90;;;1.45;;
81374;SDS011;70828;51.158;4.998;2023-07-24T07:16:23;3.28;;;1.50;;
81374;SDS011;70828;51.158;4.998;2023-07-24T07:18:49;2.20;;;1.50;;
81374;SDS011;70828;51.158;4.998;2023-07-24T07:21:16;2.85;;;1.70;;
81374;SDS011;70828;51.158;4.998;2023-07-24T07:23:42;6.47;;;1.98;;
81374;SDS011;70828;51.158;4.998;2023-07-24T07:26:10;4.32;;;1.80;;
81374;SDS011;70828;51.158;4.998;2023-07-24T07:28:37;3.28;;;1.60;;
81374;SDS011;70828;51.158;4.998;2023-07-24T07:31:03;3.55;;;2.03;;
81374;SDS011;70828;51.158;4.998;2023-07-24T07:33:30;2.92;;;1.50;;
81374;SDS011;70828;51.158;4.998;2023-07-24T07:35:57;4.03;;;1.85;;
81374;SDS011;70828;51.158;4.998;2023-07-24T07:38:23;3.35;;;1.80;;
81374;SDS011;70828;51.158;4.998;2023-07-24T07:40:50;4.22;;;1.70;;
81374;SDS011;70828;51.158;4.998;2023-07-24T07:43:18;2.75;;;1.48;;
81374;SDS011;70828;51.158;4.998;2023-07-24T07:45:44;3.40;;;1.70;;
81374;SDS011;70828;51.158;4.998;2023-07-24T07:48:12;3.97;;;1.90;;
81374;SDS011;70828;51.158;4.998;2023-07-24T07:50:39;3.42;;;1.65;;
81374;SDS011;70828;51.158;4.998;2023-07-24T07:53:06;2.47;;;1.48;;
81374;SDS011;70828;51.158;4.998;2023-07-24T07:55:32;3.75;;;1.35;;
81374;SDS011;70828;51.158;4.998;2023-07-24T07:57:59;3.38;;;1.85;;
81374;SDS011;70828;51.158;4.998;2023-07-24T08:00:27;2.22;;;1.40;;
81374;SDS011;70828;51.158;4.998;2023-07-24T08:02:53;2.50;;;1.77;;
81374;SDS011;70828;51.158;4.998;2023-07-24T08:05:20;1.67;;;1.27;;
81374;SDS011;70828;51.158;4.998;2023-07-24T08:07:46;3.10;;;1.80;;
81374;SDS011;70828;51.158;4.998;2023-07-24T08:10:13;3.35;;;1.67;;
81374;SDS011;70828;51.158;4.998;2023-07-24T08:12:40;4.65;;;1.67;;
81374;SDS011;70828;51.158;4.998;2023-07-24T08:15:07;4.10;;;2.47;;
81374;SDS011;70828;51.158;4.998;2023-07-24T08:17:36;3.00;;;1.90;;
81374;SDS011;70828;51.158;4.998;2023-07-24T08:20:03;3.22;;;2.20;;
81374;SDS011;70828;51.158;4.998;2023-07-24T08:22:30;3.20;;;1.63;;
81374;SDS011;70828;51.158;4.998;2023-07-24T08:24:57;3.75;;;2.10;;
81374;SDS011;70828;51.158;4.998;2023-07-24T08:27:23;2.60;;;1.80;;
81374;SDS011;70828;51.158;4.998;2023-07-24T08:29:50;2.95;;;1.80;;
81374;SDS011;70828;51.158;4.998;2023-07-24T08:32:17;3.67;;;2.33;;
81374;SDS011;70828;51.158;4.998;2023-07-24T08:34:45;4.45;;;2.08;;
81374;SDS011;70828;51.158;4.998;2023-07-24T08:37:12;4.35;;;2.28;;
81374;SDS011;70828;51.158;4.998;2023-07-24T08:39:38;2.83;;;1.75;;
81374;SDS011;70828;51.158;4.998;2023-07-24T08:42:09;3.63;;;2.13;;
81374;SDS011;70828;51.158;4.998;2023-07-24T08:44:37;3.95;;;2.15;;
81374;SDS011;70828;51.158;4.998;2023-07-24T08:47:04;4.38;;;1.85;;
81374;SDS011;70828;51.158;4.998;2023-07-24T08:49:33;3.08;;;1.70;;
81374;SDS011;70828;51.158;4.998;2023-07-24T08:52:02;3.50;;;1.65;;
81374;SDS011;70828;51.158;4.998;2023-07-24T08:54:29;4.40;;;1.88;;
81374;SDS011;70828;51.158;4.998;2023-07-24T08:56:56;2.70;;;1.67;;
81374;SDS011;70828;51.158;4.998;2023-07-24T08:59:23;3.30;;;1.50;;
81374;SDS011;70828;51.158;4.998;2023-07-24T09:01:49;3.90;;;2.17;;
81374;SDS011;70828;51.158;4.998;2023-07-24T09:04:17;2.63;;;1.55;;
81374;SDS011;70828;51.158;4.998;2023-07-24T09:06:43;5.70;;;2.35;;
81374;SDS011;70828;51.158;4.998;2023-07-24T09:09:15;6.85;;;2.20;;
81374;SDS011;70828;51.158;4.998;2023-07-24T09:11:45;3.15;;;1.88;;
81374;SDS011;70828;51.158;4.998;2023-07-24T09:14:19;3.97;;;1.95;;
81374;SDS011;70828;51.158;4.998;2023-07-24T09:16:46;3.38;;;1.80;;
81374;SDS011;70828;51.158;4.998;2023-07-24T09:19:16;6.30;;;2.30;;
81374;SDS011;70828;51.158;4.998;2023-07-24T09:21:43;2.70;;;1.63;;
81374;SDS011;70828;51.158;4.998;2023-07-24T09:24:11;3.33;;;1.73;;
81374;SDS011;70828;51.158;4.998;2023-07-24T09:26:49;3.45;;;1.90;;
81374;SDS011;70828;51.158;4.998;2023-07-24T09:29:17;2.38;;;1.50;;
81374;SDS011;70828;51.158;4.998;2023-07-24T09:31:44;3.45;;;1.80;;
81374;SDS011;70828;51.158;4.998;2023-07-24T09:34:14;2.90;;;2.00;;
81374;SDS011;70828;51.158;4.998;2023-07-24T09:36:41;2.80;;;1.90;;
81374;SDS011;70828;51.158;4.998;2023-07-24T09:39:08;3.50;;;1.75;;
81374;SDS011;70828;51.158;4.998;2023-07-24T09:41:36;3.95;;;2.10;;
81374;SDS011;70828;51.158;4.998;2023-07-24T09:44:04;6.10;;;2.03;;
81374;SDS011;70828;51.158;4.998;2023-07-24T09:46:31;3.17;;;1.50;;
81374;SDS011;70828;51.158;4.998;2023-07-24T09:48:58;3.92;;;2.25;;
81374;SDS011;70828;51.158;4.998;2023-07-24T09:51:24;2.72;;;1.60;;
81374;SDS011;70828;51.158;4.998;2023-07-24T09:53:52;5.60;;;2.00;;
81374;SDS011;70828;51.158;4.998;2023-07-24T09:56:22;3.25;;;1.80;;
81374;SDS011;70828;51.158;4.998;2023-07-24T09:58:49;2.70;;;1.80;;
81374;SDS011;70828;51.158;4.998;2023-07-24T10:01:20;3.00;;;2.10;;
81374;SDS011;70828;51.158;4.998;2023-07-24T10:03:48;8.45;;;2.03;;
81374;SDS011;70828;51.158;4.998;2023-07-24T10:06:15;4.63;;;2.70;;
81374;SDS011;70828;51.158;4.998;2023-07-24T10:08:42;4.47;;;2.13;;
81374;SDS011;70828;51.158;4.998;2023-07-24T10:11:11;4.45;;;1.88;;
81374;SDS011;70828;51.158;4.998;2023-07-24T10:13:38;4.15;;;2.08;;
81374;SDS011;70828;51.158;4.998;2023-07-24T10:16:05;5.90;;;2.33;;
81374;SDS011;70828;51.158;4.998;2023-07-24T10:18:34;3.75;;;2.30;;
81374;SDS011;70828;51.158;4.998;2023-07-24T10:21:01;3.13;;;2.20;;
81374;SDS011;70828;51.158;4.998;2023-07-24T10:23:29;5.45;;;2.60;;
81374;SDS011;70828;51.158;4.998;2023-07-24T10:25:55;5.00;;;2.28;;
81374;SDS011;70828;51.158;4.998;2023-07-24T10:28:29;3.53;;;2.30;;
81374;SDS011;70828;51.158;4.998;2023-07-24T10:30:56;5.20;;;2.72;;
81374;SDS011;70828;51.158;4.998;2023-07-24T10:33:23;3.63;;;2.30;;
81374;SDS011;70828;51.158;4.998;2023-07-24T10:35:53;3.90;;;2.30;;
81374;SDS011;70828;51.158;4.998;2023-07-24T10:38:31;4.05;;;2.13;;
81374;SDS011;70828;51.158;4.998;2023-07-24T10:41:01;4.28;;;2.03;;
81374;SDS011;70828;51.158;4.998;2023-07-24T10:43:28;2.72;;;1.63;;
81374;SDS011;70828;51.158;4.998;2023-07-24T10:45:55;5.15;;;2.28;;
81374;SDS011;70828;51.158;4.998;2023-07-24T10:48:24;6.13;;;2.83;;
81374;SDS011;70828;51.158;4.998;2023-07-24T10:53:20;5.55;;;2.40;;
81374;SDS011;70828;51.158;4.998;2023-07-24T10:55:47;4.50;;;3.50;;
81374;SDS011;70828;51.158;4.998;2023-07-24T10:58:15;4.72;;;2.50;;
81374;SDS011;70828;51.158;4.998;2023-07-24T11:00:42;4.78;;;2.35;;
81374;SDS011;70828;51.158;4.998;2023-07-24T11:03:10;4.93;;;2.40;;
81374;SDS011;70828;51.158;4.998;2023-07-24T11:05:38;5.20;;;2.85;;
81374;SDS011;70828;51.158;4.998;2023-07-24T11:08:11;4.40;;;2.90;;
81374;SDS011;70828;51.158;4.998;2023-07-24T11:10:44;4.25;;;2.72;;
81374;SDS011;70828;51.158;4.998;2023-07-24T11:13:11;4.40;;;1.98;;
81374;SDS011;70828;51.158;4.998;2023-07-24T11:15:38;4.93;;;2.25;;
81374;SDS011;70828;51.158;4.998;2023-07-24T11:18:05;4.55;;;2.10;;
81374;SDS011;70828;51.158;4.998;2023-07-24T11:20:33;2.45;;;1.83;;
81374;SDS011;70828;51.158;4.998;2023-07-24T11:23:02;2.60;;;1.48;;
81374;SDS011;70828;51.158;4.998;2023-07-24T11:25:30;4.03;;;2.20;;
81374;SDS011;70828;51.158;4.998;2023-07-24T11:27:58;2.22;;;1.55;;
81374;SDS011;70828;51.158;4.998;2023-07-24T11:30:26;2.05;;;1.33;;
81374;SDS011;70828;51.158;4.998;2023-07-24T11:32:52;3.38;;;1.45;;
81374;SDS011;70828;51.158;4.998;2023-07-24T11:35:20;2.38;;;1.55;;
81374;SDS011;70828;51.158;4.998;2023-07-24T11:37:47;2.95;;;1.83;;
81374;SDS011;70828;51.158;4.998;2023-07-24T11:40:14;3.15;;;2.00;;
81374;SDS011;70828;51.158;4.998;2023-07-24T11:42:43;3.00;;;1.83;;
81374;SDS011;70828;51.158;4.998;2023-07-24T11:45:10;3.47;;;1.85;;
81374;SDS011;70828;51.158;4.998;2023-07-24T11:47:43;2.13;;;1.67;;
81374;SDS011;70828;51.158;4.998;2023-07-24T11:50:11;4.60;;;2.20;;
81374;SDS011;70828;51.158;4.998;2023-07-24T11:52:38;3.85;;;2.00;;
81374;SDS011;70828;51.158;4.998;2023-07-24T11:55:06;3.97;;;1.58;;
81374;SDS011;70828;51.158;4.998;2023-07-24T11:57:33;2.50;;;1.83;;
81374;SDS011;70828;51.158;4.998;2023-07-24T12:00:02;4.07;;;2.08;;
81374;SDS011;70828;51.158;4.998;2023-07-24T12:02:31;5.00;;;2.42;;
81374;SDS011;70828;51.158;4.998;2023-07-24T12:04:58;2.70;;;2.08;;
81374;SDS011;70828;51.158;4.998;2023-07-24T12:07:29;3.97;;;2.25;;
81374;SDS011;70828;51.158;4.998;2023-07-24T12:09:57;4.97;;;2.10;;
81374;SDS011;70828;51.158;4.998;2023-07-24T12:12:23;4.05;;;2.60;;
81374;SDS011;70828;51.158;4.998;2023-07-24T12:14:50;3.20;;;2.35;;
81374;SDS011;70828;51.158;4.998;2023-07-24T12:17:18;3.90;;;2.50;;
81374;SDS011;70828;51.158;4.998;2023-07-24T12:19:46;4.75;;;2.70;;
81374;SDS011;70828;51.158;4.998;2023-07-24T12:22:13;5.57;;;2.35;;
81374;SDS011;70828;51.158;4.998;2023-07-24T12:24:40;4.60;;;2.75;;
81374;SDS011;70828;51.158;4.998;2023-07-24T12:27:07;3.60;;;2.03;;
81374;SDS011;70828;51.158;4.998;2023-07-24T12:29:33;4.10;;;2.42;;
81374;SDS011;70828;51.158;4.998;2023-07-24T12:32:00;3.40;;;2.25;;
81374;SDS011;70828;51.158;4.998;2023-07-24T12:34:28;3.20;;;2.30;;
81374;SDS011;70828;51.158;4.998;2023-07-24T12:36:55;4.57;;;2.80;;
81374;SDS011;70828;51.158;4.998;2023-07-24T12:39:21;4.95;;;2.60;;
81374;SDS011;70828;51.158;4.998;2023-07-24T12:41:48;5.88;;;2.28;;
81374;SDS011;70828;51.158;4.998;2023-07-24T12:44:14;3.47;;;2.00;;
81374;SDS011;70828;51.158;4.998;2023-07-24T12:46:41;11.10;;;3.40;;
81374;SDS011;70828;51.158;4.998;2023-07-24T12:49:08;4.60;;;2.83;;
81374;SDS011;70828;51.158;4.998;2023-07-24T12:51:36;3.88;;;2.63;;
81374;SDS011;70828;51.158;4.998;2023-07-24T12:54:02;3.08;;;2.28;;
81374;SDS011;70828;51.158;4.998;2023-07-24T12:56:29;3.72;;;2.83;;
81374;SDS011;70828;51.158;4.998;2023-07-24T12:58:56;4.72;;;2.78;;
81374;SDS011;70828;51.158;4.998;2023-07-24T13:01:22;2.88;;;2.22;;
81374;SDS011;70828;51.158;4.998;2023-07-24T13:03:50;5.05;;;3.08;;
81374;SDS011;70828;51.158;4.998;2023-07-24T13:06:16;6.25;;;2.38;;
81374;SDS011;70828;51.158;4.998;2023-07-24T13:08:44;3.92;;;2.45;;
81374;SDS011;70828;51.158;4.998;2023-07-24T13:11:11;3.05;;;2.20;;
81374;SDS011;70828;51.158;4.998;2023-07-24T13:13:38;3.78;;;2.45;;
81374;SDS011;70828;51.158;4.998;2023-07-24T13:16:04;3.83;;;2.55;;
81374;SDS011;70828;51.158;4.998;2023-07-24T13:18:31;5.95;;;2.50;;
81374;SDS011;70828;51.158;4.998;2023-07-24T13:20:58;3.70;;;2.45;;
81374;SDS011;70828;51.158;4.998;2023-07-24T13:23:24;5.50;;;2.97;;
81374;SDS011;70828;51.158;4.998;2023-07-24T13:25:53;4.13;;;2.80;;
81374;SDS011;70828;51.158;4.998;2023-07-24T13:28:19;5.28;;;2.80;;
81374;SDS011;70828;51.158;4.998;2023-07-24T13:30:46;7.68;;;2.60;;
81374;SDS011;70828;51.158;4.998;2023-07-24T13:33:12;4.07;;;2.50;;
81374;SDS011;70828;51.158;4.998;2023-07-24T13:35:39;4.13;;;2.97;;
81374;SDS011;70828;51.158;4.998;2023-07-24T13:38:06;4.70;;;2.60;;
81374;SDS011;70828;51.158;4.998;2023-07-24T13:40:33;4.35;;;2.28;;
81374;SDS011;70828;51.158;4.998;2023-07-24T13:43:01;5.05;;;2.60;;
81374;SDS011;70828;51.158;4.998;2023-07-24T13:45:28;4.03;;;3.28;;
81374;SDS011;70828;51.158;4.998;2023-07-24T13:47:56;5.53;;;2.78;;
81374;SDS011;70828;51.158;4.998;2023-07-24T13:50:23;3.05;;;2.28;;
81374;SDS011;70828;51.158;4.998;2023-07-24T13:52:50;4.47;;;2.40;;
81374;SDS011;70828;51.158;4.998;2023-07-24T13:55:16;6.13;;;2.55;;
81374;SDS011;70828;51.158;4.998;2023-07-24T13:57:43;5.28;;;2.30;;
81374;SDS011;70828;51.158;4.998;2023-07-24T14:00:12;4.68;;;2.70;;
81374;SDS011;70828;51.158;4.998;2023-07-24T14:02:39;7.30;;;2.58;;
81374;SDS011;70828;51.158;4.998;2023-07-24T14:05:06;4.57;;;2.63;;
81374;SDS011;70828;51.158;4.998;2023-07-24T14:07:34;7.70;;;2.95;;
81374;SDS011;70828;51.158;4.998;2023-07-24T14:10:00;3.88;;;2.80;;
81374;SDS011;70828;51.158;4.998;2023-07-24T14:12:27;4.72;;;2.80;;
81374;SDS011;70828;51.158;4.998;2023-07-24T14:14:54;4.78;;;2.47;;
81374;SDS011;70828;51.158;4.998;2023-07-24T14:17:22;5.85;;;3.03;;
81374;SDS011;70828;51.158;4.998;2023-07-24T14:19:48;3.60;;;2.45;;
81374;SDS011;70828;51.158;4.998;2023-07-24T14:22:15;8.05;;;4.07;;
81374;SDS011;70828;51.158;4.998;2023-07-24T14:24:42;8.23;;;5.57;;
81374;SDS011;70828;51.158;4.998;2023-07-24T14:27:08;7.35;;;5.10;;
81374;SDS011;70828;51.158;4.998;2023-07-24T14:29:35;6.95;;;4.88;;
81374;SDS011;70828;51.158;4.998;2023-07-24T14:32:02;6.47;;;5.10;;
81374;SDS011;70828;51.158;4.998;2023-07-24T14:34:30;12.18;;;5.32;;
81374;SDS011;70828;51.158;4.998;2023-07-24T14:36:57;12.45;;;5.70;;
81374;SDS011;70828;51.158;4.998;2023-07-24T14:39:24;9.50;;;6.78;;
81374;SDS011;70828;51.158;4.998;2023-07-24T14:41:50;8.68;;;6.35;;
81374;SDS011;70828;51.158;4.998;2023-07-24T14:44:17;12.93;;;6.97;;
81374;SDS011;70828;51.158;4.998;2023-07-24T14:46:44;9.13;;;6.57;;
81374;SDS011;70828;51.158;4.998;2023-07-24T14:49:10;9.90;;;5.80;;
81374;SDS011;70828;51.158;4.998;2023-07-24T14:51:39;10.30;;;5.63;;